createdAt,value
2022-10-16T00:02:01.368Z,15.804218
2022-10-16T00:07:03.169Z,15.628384
2022-10-16T00:12:04.922Z,15.376384
2022-10-16T00:17:06.989Z,14.609324
2022-10-16T00:22:08.835Z,15.1739
2022-10-16T00:27:10.445Z,14.673766
2022-10-16T00:32:12.086Z,15.245574
2022-10-16T00:37:13.759Z,14.87617
2022-10-16T00:42:15.537Z,14.695492
2022-10-16T00:47:17.235Z,14.142492
2022-10-16T00:52:19.079Z,13.94089
2022-10-16T00:57:20.787Z,14.213542
2022-10-16T01:02:22.579Z,14.332166
2022-10-16T01:07:24.673Z,14.43554
2022-10-16T01:12:26.570Z,14.65709
2022-10-16T01:17:28.643Z,14.19369
2022-10-16T01:22:30.802Z,14.51488
2022-10-16T01:27:32.450Z,13.998342
2022-10-16T01:32:34.097Z,14.51427
2022-10-16T01:37:35.822Z,13.973728
2022-10-16T01:42:37.601Z,13.946358
2022-10-16T01:47:39.243Z,14.101444
2022-10-16T01:52:41.213Z,14.509684
2022-10-16T01:57:42.975Z,13.565054
2022-10-16T02:02:44.707Z,13.943278
2022-10-16T02:07:46.254Z,14.157052
2022-10-16T02:12:47.698Z,13.995358
2022-10-16T02:17:49.146Z,13.620214
2022-10-16T02:22:50.960Z,13.832672
2022-10-16T02:27:52.441Z,14.152818
2022-10-16T02:32:53.921Z,13.69277
2022-10-16T02:37:55.722Z,14.022442
2022-10-16T02:42:57.490Z,13.71113
2022-10-16T02:47:58.953Z,13.793932
2022-10-16T02:53:00.648Z,13.990934
2022-10-16T02:58:02.405Z,13.562232
2022-10-16T03:03:03.892Z,13.795696
2022-10-16T03:08:05.510Z,13.973184
2022-10-16T03:13:07.174Z,14.17974
2022-10-16T03:18:08.593Z,14.176198
2022-10-16T03:23:10.334Z,13.735582
2022-10-16T03:28:11.771Z,13.852972
2022-10-16T03:33:13.209Z,13.741418
2022-10-16T03:38:14.745Z,13.669376
2022-10-16T03:43:16.305Z,13.924566
2022-10-16T03:48:17.942Z,13.89843
2022-10-16T03:53:19.600Z,13.790308
2022-10-16T03:58:21.119Z,13.811314
2022-10-16T04:03:22.552Z,14.243558
2022-10-16T04:08:24.125Z,14.420966
2022-10-16T04:13:25.628Z,13.986796
2022-10-16T04:18:27.138Z,14.222634
2022-10-16T04:23:28.784Z,14.326088
2022-10-16T04:28:30.291Z,14.482314
2022-10-16T04:33:31.819Z,14.48188
2022-10-16T04:38:33.420Z,14.943964
2022-10-16T04:43:35.021Z,14.904232
2022-10-16T04:48:36.549Z,15.398544
2022-10-16T04:53:38.228Z,15.095332
2022-10-16T04:58:39.696Z,15.118468
2022-10-16T05:03:41.164Z,15.172312
2022-10-16T05:08:42.716Z,15.84942
2022-10-16T05:13:44.161Z,15.582574
2022-10-16T05:18:45.626Z,15.424312
2022-10-16T05:23:47.249Z,16.284852
2022-10-16T05:28:48.743Z,17.107262
2022-10-16T05:38:51.744Z,17.063826
2022-10-16T05:43:53.182Z,17.656042
2022-10-16T05:48:54.927Z,17.547472
2022-10-16T05:53:57.032Z,17.747134
2022-10-16T05:58:58.750Z,18.483758
2022-10-16T06:04:00.552Z,18.397252
2022-10-16T06:09:02.408Z,18.259996
2022-10-16T06:14:04.164Z,18.368566
2022-10-16T06:19:06.030Z,18.758732
2022-10-16T06:24:08.128Z,18.54573
2022-10-16T06:29:09.702Z,18.486852
2022-10-16T06:34:11.170Z,18.539366
2022-10-16T06:39:12.974Z,18.582884
2022-10-16T06:44:14.525Z,19.294472
2022-10-16T06:49:15.976Z,19.649764
2022-10-16T06:54:17.682Z,18.928216
2022-10-16T06:59:19.278Z,19.851652
2022-10-16T07:04:20.839Z,20.14295
2022-10-16T07:09:22.451Z,21.036914
2022-10-16T07:14:24.168Z,21.307532
2022-10-16T07:19:27.415Z,21.704456
2022-10-16T07:24:30.420Z,21.139934
2022-10-16T07:29:32.160Z,21.58944
2022-10-16T07:34:33.827Z,22.010518
2022-10-16T07:39:35.590Z,23.35445
2022-10-16T07:44:37.266Z,24.083178
2022-10-16T07:49:39.026Z,23.64199
2022-10-16T07:54:41.095Z,23.397466
2022-10-16T07:59:42.910Z,24.017366
2022-10-16T08:04:44.694Z,24.032808
2022-10-16T08:09:46.434Z,25.384774
2022-10-16T08:14:47.903Z,24.6247
2022-10-16T08:19:49.330Z,24.88027
2022-10-16T08:24:51.237Z,24.949122
2022-10-16T08:29:52.886Z,24.535548
2022-10-16T08:34:54.469Z,24.667038
2022-10-16T08:39:56.192Z,25.773842
2022-10-16T08:44:57.906Z,25.183022
2022-10-16T08:49:59.702Z,25.14462
2022-10-16T08:55:01.592Z,24.827742
2022-10-16T09:00:03.323Z,24.442814
2022-10-16T09:05:05.042Z,24.560652
2022-10-16T09:10:06.995Z,23.873718
2022-10-16T09:15:08.728Z,24.46728
2022-10-16T09:20:10.583Z,24.158164
2022-10-16T09:25:12.537Z,23.73463
2022-10-16T09:30:14.265Z,24.232118
2022-10-16T09:35:15.851Z,24.070518
2022-10-16T09:40:17.676Z,23.179226
2022-10-16T09:45:19.427Z,23.304962
2022-10-16T09:50:21.157Z,24.39627
2022-10-16T09:55:22.928Z,23.952422
2022-10-16T10:00:24.772Z,24.458948
2022-10-16T10:05:26.510Z,24.712496
2022-10-16T10:10:28.177Z,25.003808
2022-10-16T10:15:29.935Z,25.411222
2022-10-16T10:20:31.688Z,25.894544
2022-10-16T10:25:33.723Z,26.453748
2022-10-16T10:30:35.187Z,25.760558
2022-10-16T10:35:37.344Z,27.31071
2022-10-16T10:40:39.206Z,27.150724
2022-10-16T10:45:40.946Z,26.540268
2022-10-16T10:50:42.672Z,26.115444
2022-10-16T10:55:44.610Z,26.674892
2022-10-16T11:00:46.317Z,25.530146
2022-10-16T11:05:48.152Z,26.702656
2022-10-16T11:10:49.685Z,28.141198
2022-10-16T11:15:51.229Z,27.470262
2022-10-16T11:20:52.843Z,28.16371
2022-10-16T11:25:54.450Z,27.392128
2022-10-16T11:30:55.950Z,29.409334
2022-10-16T11:35:57.377Z,28.357918
2022-10-16T11:40:59.004Z,28.497822
2022-10-16T11:46:00.502Z,29.373348
2022-10-16T11:51:02.172Z,28.238506
2022-10-16T11:56:03.927Z,28.157292
2022-10-16T12:01:05.720Z,28.709698
2022-10-16T12:06:07.151Z,29.286598
2022-10-16T12:11:08.988Z,28.833494
2022-10-16T12:16:10.662Z,29.047812
2022-10-16T12:21:12.365Z,27.735304
2022-10-16T12:26:14.288Z,28.20119
2022-10-16T12:31:15.950Z,29.086662
2022-10-16T12:36:20.096Z,28.60266
2022-10-16T12:41:23.682Z,28.67173
2022-10-16T12:46:25.348Z,29.084654
2022-10-16T12:51:27.356Z,27.833968
2022-10-16T12:56:29.465Z,27.349316
2022-10-16T13:01:31.240Z,28.772146
2022-10-16T13:06:33.033Z,27.939472
2022-10-16T13:11:34.606Z,27.731124
2022-10-16T13:16:36.380Z,27.599798
2022-10-16T13:21:38.138Z,27.928848
2022-10-16T13:26:40.145Z,27.874108
2022-10-16T13:31:41.865Z,28.732644
2022-10-16T13:36:43.643Z,27.694486
2022-10-16T13:41:45.550Z,28.011188
2022-10-16T13:46:47.308Z,27.066784
2022-10-16T13:51:49.033Z,27.129502
2022-10-16T13:57:03.254Z,26.43144
2022-10-16T14:02:11.250Z,26.403188
2022-10-16T14:07:12.741Z,26.251344
2022-10-16T14:12:14.282Z,25.806424
2022-10-16T14:17:16.032Z,26.048112
2022-10-16T14:22:17.684Z,25.47694
2022-10-16T14:27:19.702Z,25.760124
2022-10-16T14:32:21.179Z,25.432758
2022-10-16T14:37:25.211Z,25.564138
2022-10-16T14:42:29.526Z,25.0378
2022-10-16T14:47:31.555Z,24.896554
2022-10-16T14:52:33.327Z,25.119408
2022-10-16T14:57:35.304Z,25.013036
2022-10-16T15:02:36.857Z,25.032698
2022-10-16T15:07:38.637Z,25.662776
2022-10-16T15:12:40.555Z,25.186944
2022-10-16T15:17:42.304Z,25.076162
2022-10-16T15:22:44.087Z,24.709606
2022-10-16T15:27:46.068Z,24.958798
2022-10-16T15:32:47.795Z,24.79082
2022-10-16T15:37:49.594Z,24.337066
2022-10-16T15:42:51.129Z,24.415484
2022-10-16T15:47:52.609Z,23.584306
2022-10-16T15:52:54.360Z,24.32716
2022-10-16T15:57:56.223Z,23.725796
2022-10-16T16:02:57.694Z,23.960374
2022-10-16T16:07:59.149Z,23.647676
2022-10-16T16:13:00.642Z,23.807648
2022-10-16T16:18:02.304Z,23.232772
2022-10-16T16:23:03.893Z,23.385742
2022-10-16T16:28:05.893Z,23.481964
2022-10-16T16:33:07.559Z,23.333214
2022-10-16T16:38:09.021Z,23.095312
2022-10-16T16:43:10.780Z,23.322182
2022-10-16T16:48:12.446Z,23.15799
2022-10-16T16:53:14.213Z,22.716354
2022-10-16T16:58:16.190Z,23.315112
2022-10-16T17:03:17.939Z,22.369434
2022-10-16T17:08:19.690Z,22.29818
2022-10-16T17:13:21.462Z,22.345402
2022-10-16T17:18:23.267Z,23.112084
2022-10-16T17:23:24.795Z,22.593454
2022-10-16T17:28:26.803Z,22.453742
2022-10-16T17:33:28.599Z,22.947892
2022-10-16T17:38:30.371Z,22.58728
2022-10-16T17:43:32.350Z,22.628328
2022-10-16T17:48:34.072Z,22.383166
2022-10-16T17:53:35.836Z,21.714036
2022-10-16T17:58:37.680Z,22.13335
2022-10-16T18:03:39.890Z,22.269982
2022-10-16T18:08:41.526Z,22.361102
2022-10-16T18:13:43.267Z,21.954394
2022-10-16T18:18:45.019Z,22.437024
2022-10-16T18:23:50.916Z,22.206178
2022-10-16T18:28:53.848Z,22.252084
2022-10-16T18:33:55.550Z,22.32844
2022-10-16T18:38:57.066Z,21.999418
2022-10-16T18:43:58.592Z,21.637938
2022-10-16T18:49:00.036Z,21.064216
2022-10-16T18:54:02.128Z,20.866982
2022-10-16T18:59:03.776Z,20.13223
2022-10-16T19:04:05.382Z,19.853538
2022-10-16T19:09:07.138Z,19.96759
2022-10-16T19:14:08.617Z,20.178122
2022-10-16T19:19:10.086Z,20.383172
2022-10-16T19:24:11.754Z,19.794646
2022-10-16T19:29:13.612Z,19.8012
2022-10-16T19:34:15.356Z,19.750694
2022-10-16T19:39:17.180Z,19.64344
2022-10-16T19:44:19.083Z,19.746718
2022-10-16T19:49:20.812Z,19.726486
2022-10-16T19:54:22.511Z,19.219296
2022-10-16T19:59:24.447Z,19.244264
2022-10-16T20:04:26.166Z,18.70448
2022-10-16T20:09:27.900Z,19.296154
2022-10-16T20:14:29.702Z,19.609082
2022-10-16T20:19:31.444Z,19.118542
2022-10-16T20:24:33.176Z,19.34799
2022-10-16T20:29:35.111Z,19.408456
2022-10-16T20:39:38.660Z,19.005304
2022-10-16T20:44:40.465Z,18.849946
2022-10-16T20:49:42.317Z,19.021194
2022-10-16T20:54:44.060Z,19.05429
2022-10-16T20:59:46.085Z,19.32617
2022-10-16T21:04:47.721Z,18.861046
2022-10-16T21:09:49.612Z,18.46974
2022-10-16T21:15:13.489Z,18.66483
2022-10-16T21:20:16.739Z,18.205554
2022-10-16T21:25:18.546Z,18.599248
2022-10-16T21:30:20.522Z,18.649198
2022-10-16T21:35:22.267Z,18.83255
2022-10-16T21:40:23.896Z,18.396668
2022-10-16T21:45:25.658Z,18.399572
2022-10-16T21:50:27.364Z,18.934688
2022-10-16T21:55:29.183Z,18.653798
2022-10-16T22:00:31.248Z,18.266468
2022-10-16T22:05:32.999Z,17.960854
2022-10-16T22:10:34.755Z,18.151086
2022-10-16T22:15:36.670Z,18.367982
2022-10-16T22:20:38.542Z,17.58457
2022-10-16T22:25:40.298Z,17.388504
2022-10-16T22:30:42.253Z,17.490452
2022-10-16T22:35:43.975Z,17.935344
2022-10-16T22:40:45.702Z,17.301726
2022-10-16T22:45:47.230Z,17.256716
2022-10-16T22:50:49.005Z,17.460178
2022-10-16T22:55:50.767Z,17.299528
2022-10-16T23:00:52.743Z,17.33219
2022-10-16T23:05:54.429Z,17.41012
2022-10-16T23:10:56.073Z,17.469528
2022-10-16T23:15:57.577Z,17.36758
2022-10-16T23:20:59.060Z,17.288306
2022-10-16T23:26:00.599Z,17.1612
2022-10-16T23:31:02.679Z,17.403946
2022-10-16T23:36:04.332Z,16.791348
2022-10-16T23:41:05.881Z,16.547978
2022-10-16T23:46:07.646Z,16.519034
2022-10-16T23:51:09.390Z,17.203388
2022-10-16T23:56:11.053Z,16.80926
